sensor_id;sensor_type;location;lat;lon;timestamp;P1;durP1;ratioP1;P2;durP2;ratioP2
13743;SDS011;6943;52.368;9.966;2022-11-25T00:00:24;17.77;;;9.07;;
13743;SDS011;6943;52.368;9.966;2022-11-25T00:02:49;25.97;;;10.30;;
13743;SDS011;6943;52.368;9.966;2022-11-25T00:05:15;15.90;;;8.87;;
13743;SDS011;6943;52.368;9.966;2022-11-25T00:07:40;18.30;;;8.17;;
13743;SDS011;6943;52.368;9.966;2022-11-25T00:10:06;13.47;;;8.47;;
13743;SDS011;6943;52.368;9.966;2022-11-25T00:12:32;15.20;;;7.07;;
13743;SDS011;6943;52.368;9.966;2022-11-25T00:14:57;14.13;;;8.77;;
13743;SDS011;6943;52.368;9.966;2022-11-25T00:17:23;14.20;;;8.17;;
13743;SDS011;6943;52.368;9.966;2022-11-25T00:19:48;14.60;;;7.57;;
13743;SDS011;6943;52.368;9.966;2022-11-25T00:22:15;18.83;;;7.27;;
13743;SDS011;6943;52.368;9.966;2022-11-25T00:24:40;12.27;;;6.17;;
13743;SDS011;6943;52.368;9.966;2022-11-25T00:27:07;9.53;;;6.70;;
13743;SDS011;6943;52.368;9.966;2022-11-25T00:29:33;12.63;;;6.70;;
13743;SDS011;6943;52.368;9.966;2022-11-25T00:31:58;11.67;;;6.30;;
13743;SDS011;6943;52.368;9.966;2022-11-25T00:34:24;12.03;;;6.47;;
13743;SDS011;6943;52.368;9.966;2022-11-25T00:36:50;17.53;;;6.60;;
13743;SDS011;6943;52.368;9.966;2022-11-25T00:39:17;13.57;;;6.10;;
13743;SDS011;6943;52.368;9.966;2022-11-25T00:41:44;11.83;;;6.17;;
13743;SDS011;6943;52.368;9.966;2022-11-25T00:44:29;7.43;;;5.80;;
13743;SDS011;6943;52.368;9.966;2022-11-25T00:49:29;14.40;;;6.20;;
13743;SDS011;6943;52.368;9.966;2022-11-25T00:51:55;12.40;;;6.10;;
13743;SDS011;6943;52.368;9.966;2022-11-25T00:54:21;15.00;;;6.93;;
13743;SDS011;6943;52.368;9.966;2022-11-25T00:56:47;14.13;;;5.73;;
13743;SDS011;6943;52.368;9.966;2022-11-25T00:59:12;10.30;;;5.33;;
13743;SDS011;6943;52.368;9.966;2022-11-25T01:01:38;14.40;;;6.47;;
13743;SDS011;6943;52.368;9.966;2022-11-25T01:04:04;8.80;;;5.67;;
13743;SDS011;6943;52.368;9.966;2022-11-25T01:06:30;12.17;;;5.27;;
13743;SDS011;6943;52.368;9.966;2022-11-25T01:08:56;14.43;;;5.70;;
13743;SDS011;6943;52.368;9.966;2022-11-25T01:11:21;10.07;;;5.27;;
13743;SDS011;6943;52.368;9.966;2022-11-25T01:13:47;9.23;;;5.23;;
13743;SDS011;6943;52.368;9.966;2022-11-25T01:16:17;12.50;;;4.60;;
13743;SDS011;6943;52.368;9.966;2022-11-25T01:18:44;10.53;;;4.63;;
13743;SDS011;6943;52.368;9.966;2022-11-25T01:21:11;10.80;;;4.83;;
13743;SDS011;6943;52.368;9.966;2022-11-25T01:23:38;10.90;;;5.10;;
13743;SDS011;6943;52.368;9.966;2022-11-25T01:26:10;11.53;;;5.77;;
13743;SDS011;6943;52.368;9.966;2022-11-25T01:28:37;9.07;;;4.33;;
13743;SDS011;6943;52.368;9.966;2022-11-25T01:31:04;10.47;;;4.30;;
13743;SDS011;6943;52.368;9.966;2022-11-25T01:33:32;13.33;;;4.70;;
13743;SDS011;6943;52.368;9.966;2022-11-25T01:36:02;13.40;;;5.60;;
13743;SDS011;6943;52.368;9.966;2022-11-25T01:38:29;11.30;;;5.17;;
13743;SDS011;6943;52.368;9.966;2022-11-25T01:40:55;9.83;;;4.73;;
13743;SDS011;6943;52.368;9.966;2022-11-25T01:43:20;10.93;;;4.70;;
13743;SDS011;6943;52.368;9.966;2022-11-25T01:45:46;16.50;;;4.67;;
13743;SDS011;6943;52.368;9.966;2022-11-25T01:48:15;9.90;;;5.27;;
13743;SDS011;6943;52.368;9.966;2022-11-25T01:50:46;12.30;;;4.73;;
13743;SDS011;6943;52.368;9.966;2022-11-25T01:53:13;14.87;;;5.27;;
13743;SDS011;6943;52.368;9.966;2022-11-25T01:55:44;13.77;;;5.43;;
13743;SDS011;6943;52.368;9.966;2022-11-25T01:58:19;13.27;;;4.67;;
13743;SDS011;6943;52.368;9.966;2022-11-25T02:00:49;10.77;;;4.80;;
13743;SDS011;6943;52.368;9.966;2022-11-25T02:03:23;11.93;;;5.37;;
13743;SDS011;6943;52.368;9.966;2022-11-25T02:08:29;9.70;;;3.53;;
13743;SDS011;6943;52.368;9.966;2022-11-25T02:10:56;10.70;;;4.53;;
13743;SDS011;6943;52.368;9.966;2022-11-25T02:13:24;12.20;;;4.73;;
13743;SDS011;6943;52.368;9.966;2022-11-25T02:15:50;14.23;;;4.67;;
13743;SDS011;6943;52.368;9.966;2022-11-25T02:18:16;8.47;;;4.07;;
13743;SDS011;6943;52.368;9.966;2022-11-25T02:20:41;12.13;;;4.70;;
13743;SDS011;6943;52.368;9.966;2022-11-25T02:23:18;10.60;;;4.50;;
13743;SDS011;6943;52.368;9.966;2022-11-25T02:25:49;8.40;;;4.20;;
13743;SDS011;6943;52.368;9.966;2022-11-25T02:28:26;7.93;;;3.97;;
13743;SDS011;6943;52.368;9.966;2022-11-25T02:30:54;13.13;;;3.93;;
13743;SDS011;6943;52.368;9.966;2022-11-25T02:33:20;8.17;;;3.57;;
13743;SDS011;6943;52.368;9.966;2022-11-25T02:38:18;12.60;;;3.77;;
13743;SDS011;6943;52.368;9.966;2022-11-25T02:43:37;9.60;;;4.03;;
13743;SDS011;6943;52.368;9.966;2022-11-25T02:46:04;10.67;;;4.17;;
13743;SDS011;6943;52.368;9.966;2022-11-25T02:48:33;6.73;;;3.33;;
13743;SDS011;6943;52.368;9.966;2022-11-25T02:51:00;6.03;;;3.10;;
13743;SDS011;6943;52.368;9.966;2022-11-25T02:53:26;9.90;;;3.53;;
13743;SDS011;6943;52.368;9.966;2022-11-25T02:55:52;9.47;;;3.90;;
13743;SDS011;6943;52.368;9.966;2022-11-25T02:58:18;10.47;;;3.67;;
13743;SDS011;6943;52.368;9.966;2022-11-25T03:00:44;8.90;;;3.30;;
13743;SDS011;6943;52.368;9.966;2022-11-25T03:03:10;10.67;;;3.10;;
13743;SDS011;6943;52.368;9.966;2022-11-25T03:05:36;8.53;;;3.03;;
13743;SDS011;6943;52.368;9.966;2022-11-25T03:08:02;6.50;;;3.53;;
13743;SDS011;6943;52.368;9.966;2022-11-25T03:10:28;9.87;;;3.27;;
13743;SDS011;6943;52.368;9.966;2022-11-25T03:12:54;9.87;;;3.40;;
13743;SDS011;6943;52.368;9.966;2022-11-25T03:15:19;9.70;;;3.10;;
13743;SDS011;6943;52.368;9.966;2022-11-25T03:17:46;9.30;;;3.50;;
13743;SDS011;6943;52.368;9.966;2022-11-25T03:20:11;6.53;;;2.63;;
13743;SDS011;6943;52.368;9.966;2022-11-25T03:22:39;7.83;;;2.93;;
13743;SDS011;6943;52.368;9.966;2022-11-25T03:25:08;5.67;;;3.00;;
13743;SDS011;6943;52.368;9.966;2022-11-25T03:27:36;14.23;;;2.93;;
13743;SDS011;6943;52.368;9.966;2022-11-25T03:30:02;9.30;;;3.07;;
13743;SDS011;6943;52.368;9.966;2022-11-25T03:32:30;11.67;;;4.40;;
13743;SDS011;6943;52.368;9.966;2022-11-25T03:34:55;8.87;;;2.83;;
13743;SDS011;6943;52.368;9.966;2022-11-25T03:37:21;8.47;;;3.27;;
13743;SDS011;6943;52.368;9.966;2022-11-25T03:39:47;7.57;;;3.10;;
13743;SDS011;6943;52.368;9.966;2022-11-25T03:42:13;14.77;;;3.73;;
13743;SDS011;6943;52.368;9.966;2022-11-25T03:44:38;6.63;;;2.70;;
13743;SDS011;6943;52.368;9.966;2022-11-25T03:47:04;9.93;;;3.13;;
13743;SDS011;6943;52.368;9.966;2022-11-25T03:49:29;8.30;;;3.47;;
13743;SDS011;6943;52.368;9.966;2022-11-25T03:51:55;10.33;;;3.90;;
13743;SDS011;6943;52.368;9.966;2022-11-25T03:54:20;9.80;;;3.13;;
13743;SDS011;6943;52.368;9.966;2022-11-25T03:56:46;8.00;;;3.03;;
13743;SDS011;6943;52.368;9.966;2022-11-25T03:59:11;11.67;;;3.27;;
13743;SDS011;6943;52.368;9.966;2022-11-25T04:01:37;11.50;;;3.43;;
13743;SDS011;6943;52.368;9.966;2022-11-25T04:04:03;8.93;;;3.00;;
13743;SDS011;6943;52.368;9.966;2022-11-25T04:06:28;11.33;;;3.30;;
13743;SDS011;6943;52.368;9.966;2022-11-25T04:08:56;10.60;;;2.83;;
13743;SDS011;6943;52.368;9.966;2022-11-25T04:11:21;12.27;;;3.00;;
13743;SDS011;6943;52.368;9.966;2022-11-25T04:14:07;9.97;;;3.23;;
13743;SDS011;6943;52.368;9.966;2022-11-25T04:16:32;9.60;;;3.00;;
13743;SDS011;6943;52.368;9.966;2022-11-25T04:18:58;8.93;;;2.87;;
13743;SDS011;6943;52.368;9.966;2022-11-25T04:21:23;13.93;;;3.07;;
13743;SDS011;6943;52.368;9.966;2022-11-25T04:23:49;7.10;;;2.63;;
13743;SDS011;6943;52.368;9.966;2022-11-25T04:26:14;7.77;;;2.60;;
13743;SDS011;6943;52.368;9.966;2022-11-25T04:28:40;10.40;;;3.17;;
13743;SDS011;6943;52.368;9.966;2022-11-25T04:31:06;13.07;;;3.10;;
13743;SDS011;6943;52.368;9.966;2022-11-25T04:33:32;8.60;;;3.13;;
13743;SDS011;6943;52.368;9.966;2022-11-25T04:35:58;12.03;;;3.43;;
13743;SDS011;6943;52.368;9.966;2022-11-25T04:38:23;8.47;;;3.43;;
13743;SDS011;6943;52.368;9.966;2022-11-25T04:40:49;9.07;;;3.00;;
13743;SDS011;6943;52.368;9.966;2022-11-25T04:43:14;11.60;;;3.17;;
13743;SDS011;6943;52.368;9.966;2022-11-25T04:45:40;10.33;;;3.97;;
13743;SDS011;6943;52.368;9.966;2022-11-25T04:48:05;9.70;;;2.83;;
13743;SDS011;6943;52.368;9.966;2022-11-25T04:50:31;11.50;;;3.20;;
13743;SDS011;6943;52.368;9.966;2022-11-25T04:52:56;8.67;;;3.27;;
13743;SDS011;6943;52.368;9.966;2022-11-25T04:55:22;8.93;;;3.20;;
13743;SDS011;6943;52.368;9.966;2022-11-25T04:57:48;11.13;;;3.47;;
13743;SDS011;6943;52.368;9.966;2022-11-25T05:00:14;6.83;;;3.07;;
13743;SDS011;6943;52.368;9.966;2022-11-25T05:02:40;9.53;;;3.93;;
13743;SDS011;6943;52.368;9.966;2022-11-25T05:05:06;7.53;;;3.03;;
13743;SDS011;6943;52.368;9.966;2022-11-25T05:07:31;10.67;;;3.97;;
13743;SDS011;6943;52.368;9.966;2022-11-25T05:09:57;6.80;;;2.83;;
13743;SDS011;6943;52.368;9.966;2022-11-25T05:12:24;12.97;;;3.40;;
13743;SDS011;6943;52.368;9.966;2022-11-25T05:14:51;7.83;;;2.93;;
13743;SDS011;6943;52.368;9.966;2022-11-25T05:17:18;7.37;;;3.70;;
13743;SDS011;6943;52.368;9.966;2022-11-25T05:19:46;15.00;;;3.47;;
13743;SDS011;6943;52.368;9.966;2022-11-25T05:22:13;12.80;;;3.70;;
13743;SDS011;6943;52.368;9.966;2022-11-25T05:24:40;9.90;;;3.50;;
13743;SDS011;6943;52.368;9.966;2022-11-25T05:27:05;9.70;;;3.40;;
13743;SDS011;6943;52.368;9.966;2022-11-25T05:29:31;9.90;;;3.63;;
13743;SDS011;6943;52.368;9.966;2022-11-25T05:31:56;8.53;;;4.00;;
13743;SDS011;6943;52.368;9.966;2022-11-25T05:34:22;7.43;;;2.70;;
13743;SDS011;6943;52.368;9.966;2022-11-25T05:36:48;7.30;;;4.30;;
13743;SDS011;6943;52.368;9.966;2022-11-25T05:39:13;10.43;;;3.27;;
13743;SDS011;6943;52.368;9.966;2022-11-25T05:41:39;11.13;;;3.57;;
13743;SDS011;6943;52.368;9.966;2022-11-25T05:44:04;9.20;;;3.30;;
13743;SDS011;6943;52.368;9.966;2022-11-25T05:46:30;10.47;;;3.00;;
13743;SDS011;6943;52.368;9.966;2022-11-25T05:48:56;8.93;;;4.00;;
13743;SDS011;6943;52.368;9.966;2022-11-25T05:51:23;10.73;;;3.37;;
13743;SDS011;6943;52.368;9.966;2022-11-25T05:53:49;16.37;;;4.40;;
13743;SDS011;6943;52.368;9.966;2022-11-25T05:56:14;11.67;;;3.30;;
13743;SDS011;6943;52.368;9.966;2022-11-25T05:58:40;13.03;;;4.03;;
13743;SDS011;6943;52.368;9.966;2022-11-25T06:01:06;9.27;;;3.43;;
13743;SDS011;6943;52.368;9.966;2022-11-25T06:03:33;9.57;;;3.47;;
13743;SDS011;6943;52.368;9.966;2022-11-25T06:05:58;10.87;;;3.67;;
13743;SDS011;6943;52.368;9.966;2022-11-25T06:08:24;12.20;;;4.47;;
13743;SDS011;6943;52.368;9.966;2022-11-25T06:10:51;9.57;;;3.93;;
13743;SDS011;6943;52.368;9.966;2022-11-25T06:13:17;10.83;;;3.97;;
13743;SDS011;6943;52.368;9.966;2022-11-25T06:15:43;10.03;;;3.67;;
13743;SDS011;6943;52.368;9.966;2022-11-25T06:18:10;13.90;;;4.17;;
13743;SDS011;6943;52.368;9.966;2022-11-25T06:20:36;5.80;;;3.27;;
13743;SDS011;6943;52.368;9.966;2022-11-25T06:23:03;10.63;;;4.20;;
13743;SDS011;6943;52.368;9.966;2022-11-25T06:25:29;8.00;;;3.63;;
13743;SDS011;6943;52.368;9.966;2022-11-25T06:27:54;11.70;;;3.60;;
13743;SDS011;6943;52.368;9.966;2022-11-25T06:30:20;7.83;;;3.90;;
13743;SDS011;6943;52.368;9.966;2022-11-25T06:32:45;11.03;;;3.27;;
13743;SDS011;6943;52.368;9.966;2022-11-25T06:35:11;12.90;;;3.77;;
13743;SDS011;6943;52.368;9.966;2022-11-25T06:37:37;8.33;;;4.07;;
13743;SDS011;6943;52.368;9.966;2022-11-25T06:40:03;10.67;;;3.83;;
13743;SDS011;6943;52.368;9.966;2022-11-25T06:42:29;9.13;;;3.70;;
13743;SDS011;6943;52.368;9.966;2022-11-25T06:44:55;11.50;;;3.53;;
13743;SDS011;6943;52.368;9.966;2022-11-25T06:47:20;8.20;;;3.20;;
13743;SDS011;6943;52.368;9.966;2022-11-25T06:49:46;10.23;;;3.63;;
13743;SDS011;6943;52.368;9.966;2022-11-25T06:52:11;13.33;;;4.00;;
13743;SDS011;6943;52.368;9.966;2022-11-25T06:54:37;8.17;;;3.47;;
13743;SDS011;6943;52.368;9.966;2022-11-25T06:57:05;11.93;;;3.60;;
13743;SDS011;6943;52.368;9.966;2022-11-25T06:59:32;10.73;;;3.80;;
13743;SDS011;6943;52.368;9.966;2022-11-25T07:01:58;8.80;;;3.83;;
13743;SDS011;6943;52.368;9.966;2022-11-25T07:04:23;7.47;;;3.33;;
13743;SDS011;6943;52.368;9.966;2022-11-25T07:06:49;10.73;;;3.10;;
13743;SDS011;6943;52.368;9.966;2022-11-25T07:09:15;13.33;;;4.57;;
13743;SDS011;6943;52.368;9.966;2022-11-25T07:11:41;6.77;;;3.27;;
13743;SDS011;6943;52.368;9.966;2022-11-25T07:14:11;8.73;;;3.20;;
13743;SDS011;6943;52.368;9.966;2022-11-25T07:16:39;6.33;;;3.33;;
13743;SDS011;6943;52.368;9.966;2022-11-25T07:19:06;8.90;;;3.33;;
13743;SDS011;6943;52.368;9.966;2022-11-25T07:21:32;11.37;;;3.50;;
13743;SDS011;6943;52.368;9.966;2022-11-25T07:23:59;8.77;;;4.20;;
13743;SDS011;6943;52.368;9.966;2022-11-25T07:26:27;5.93;;;3.17;;
13743;SDS011;6943;52.368;9.966;2022-11-25T07:28:56;13.30;;;3.63;;
13743;SDS011;6943;52.368;9.966;2022-11-25T07:31:24;17.10;;;3.30;;
13743;SDS011;6943;52.368;9.966;2022-11-25T07:33:51;7.77;;;2.90;;
13743;SDS011;6943;52.368;9.966;2022-11-25T07:36:18;7.23;;;2.90;;
13743;SDS011;6943;52.368;9.966;2022-11-25T07:38:45;9.83;;;3.33;;
13743;SDS011;6943;52.368;9.966;2022-11-25T07:41:12;15.63;;;3.73;;
13743;SDS011;6943;52.368;9.966;2022-11-25T07:43:39;12.30;;;3.20;;
13743;SDS011;6943;52.368;9.966;2022-11-25T07:46:14;10.00;;;3.73;;
13743;SDS011;6943;52.368;9.966;2022-11-25T07:48:43;10.60;;;3.70;;
13743;SDS011;6943;52.368;9.966;2022-11-25T07:51:29;9.70;;;3.77;;
13743;SDS011;6943;52.368;9.966;2022-11-25T07:53:55;9.77;;;3.47;;
13743;SDS011;6943;52.368;9.966;2022-11-25T07:56:22;7.70;;;3.80;;
13743;SDS011;6943;52.368;9.966;2022-11-25T07:58:48;11.60;;;3.17;;
13743;SDS011;6943;52.368;9.966;2022-11-25T08:01:14;7.43;;;4.37;;
13743;SDS011;6943;52.368;9.966;2022-11-25T08:03:42;13.03;;;3.73;;
13743;SDS011;6943;52.368;9.966;2022-11-25T08:06:09;13.90;;;3.80;;
13743;SDS011;6943;52.368;9.966;2022-11-25T08:08:37;10.50;;;3.90;;
13743;SDS011;6943;52.368;9.966;2022-11-25T08:11:14;15.00;;;4.80;;
13743;SDS011;6943;52.368;9.966;2022-11-25T08:13:41;7.50;;;3.10;;
13743;SDS011;6943;52.368;9.966;2022-11-25T08:16:07;8.00;;;3.63;;
13743;SDS011;6943;52.368;9.966;2022-11-25T08:18:35;13.17;;;4.00;;
13743;SDS011;6943;52.368;9.966;2022-11-25T08:21:02;10.73;;;3.60;;
13743;SDS011;6943;52.368;9.966;2022-11-25T08:23:30;11.30;;;5.33;;
13743;SDS011;6943;52.368;9.966;2022-11-25T08:25:56;11.83;;;4.00;;
13743;SDS011;6943;52.368;9.966;2022-11-25T08:28:22;13.90;;;4.23;;
13743;SDS011;6943;52.368;9.966;2022-11-25T08:30:48;11.70;;;4.20;;
13743;SDS011;6943;52.368;9.966;2022-11-25T08:33:14;13.73;;;4.83;;
13743;SDS011;6943;52.368;9.966;2022-11-25T08:35:40;11.50;;;3.63;;
13743;SDS011;6943;52.368;9.966;2022-11-25T08:38:06;13.80;;;3.80;;
13743;SDS011;6943;52.368;9.966;2022-11-25T08:40:33;12.30;;;3.60;;
13743;SDS011;6943;52.368;9.966;2022-11-25T08:43:00;8.77;;;3.73;;
13743;SDS011;6943;52.368;9.966;2022-11-25T08:45:26;10.53;;;3.43;;
13743;SDS011;6943;52.368;9.966;2022-11-25T08:47:52;9.37;;;3.60;;
13743;SDS011;6943;52.368;9.966;2022-11-25T08:50:18;12.87;;;3.47;;
13743;SDS011;6943;52.368;9.966;2022-11-25T08:52:44;11.23;;;3.53;;
13743;SDS011;6943;52.368;9.966;2022-11-25T08:55:09;9.33;;;3.77;;
13743;SDS011;6943;52.368;9.966;2022-11-25T08:57:35;12.87;;;3.70;;
13743;SDS011;6943;52.368;9.966;2022-11-25T09:00:01;10.13;;;3.80;;
13743;SDS011;6943;52.368;9.966;2022-11-25T09:02:28;9.57;;;3.40;;
13743;SDS011;6943;52.368;9.966;2022-11-25T09:04:53;11.07;;;3.63;;
13743;SDS011;6943;52.368;9.966;2022-11-25T09:07:18;10.70;;;4.23;;
13743;SDS011;6943;52.368;9.966;2022-11-25T09:09:44;7.93;;;3.50;;
13743;SDS011;6943;52.368;9.966;2022-11-25T09:12:10;10.70;;;3.50;;
13743;SDS011;6943;52.368;9.966;2022-11-25T09:14:35;12.97;;;3.80;;
13743;SDS011;6943;52.368;9.966;2022-11-25T09:17:01;9.53;;;4.13;;
13743;SDS011;6943;52.368;9.966;2022-11-25T09:19:27;12.70;;;4.63;;
13743;SDS011;6943;52.368;9.966;2022-11-25T09:21:53;9.57;;;3.97;;
13743;SDS011;6943;52.368;9.966;2022-11-25T09:24:19;9.57;;;4.03;;
13743;SDS011;6943;52.368;9.966;2022-11-25T09:26:44;11.23;;;4.60;;
13743;SDS011;6943;52.368;9.966;2022-11-25T09:29:10;16.13;;;6.43;;
13743;SDS011;6943;52.368;9.966;2022-11-25T09:31:37;13.40;;;8.20;;
13743;SDS011;6943;52.368;9.966;2022-11-25T09:34:03;15.57;;;7.37;;
13743;SDS011;6943;52.368;9.966;2022-11-25T09:36:29;15.73;;;6.10;;
13743;SDS011;6943;52.368;9.966;2022-11-25T09:38:55;12.57;;;4.50;;
13743;SDS011;6943;52.368;9.966;2022-11-25T09:41:25;12.23;;;4.10;;
13743;SDS011;6943;52.368;9.966;2022-11-25T09:56:09;10.17;;;4.13;;
13743;SDS011;6943;52.368;9.966;2022-11-25T09:59:04;6.90;;;3.90;;
13743;SDS011;6943;52.368;9.966;2022-11-25T10:01:46;13.67;;;4.23;;
13743;SDS011;6943;52.368;9.966;2022-11-25T10:04:44;9.50;;;3.87;;
13743;SDS011;6943;52.368;9.966;2022-11-25T10:07:16;10.80;;;4.13;;
13743;SDS011;6943;52.368;9.966;2022-11-25T10:09:46;10.00;;;4.30;;
13743;SDS011;6943;52.368;9.966;2022-11-25T10:12:25;13.50;;;4.73;;
13743;SDS011;6943;52.368;9.966;2022-11-25T10:14:58;10.50;;;3.70;;
13743;SDS011;6943;52.368;9.966;2022-11-25T10:20:19;12.70;;;4.23;;
13743;SDS011;6943;52.368;9.966;2022-11-25T10:22:46;14.70;;;4.90;;
13743;SDS011;6943;52.368;9.966;2022-11-25T10:25:15;14.27;;;4.50;;
13743;SDS011;6943;52.368;9.966;2022-11-25T10:30:38;13.00;;;3.77;;
13743;SDS011;6943;52.368;9.966;2022-11-25T10:33:18;11.33;;;3.60;;
13743;SDS011;6943;52.368;9.966;2022-11-25T10:35:46;8.80;;;4.07;;
13743;SDS011;6943;52.368;9.966;2022-11-25T10:38:21;10.30;;;3.97;;
13743;SDS011;6943;52.368;9.966;2022-11-25T10:40:54;8.97;;;3.60;;
13743;SDS011;6943;52.368;9.966;2022-11-25T10:43:20;7.27;;;3.50;;
13743;SDS011;6943;52.368;9.966;2022-11-25T10:45:48;14.03;;;5.97;;
13743;SDS011;6943;52.368;9.966;2022-11-25T10:48:27;10.93;;;3.80;;
13743;SDS011;6943;52.368;9.966;2022-11-25T10:51:32;12.73;;;3.60;;
13743;SDS011;6943;52.368;9.966;2022-11-25T10:54:07;13.47;;;4.00;;
13743;SDS011;6943;52.368;9.966;2022-11-25T10:56:41;6.60;;;3.20;;
13743;SDS011;6943;52.368;9.966;2022-11-25T10:59:27;8.23;;;3.20;;
13743;SDS011;6943;52.368;9.966;2022-11-25T11:02:04;8.00;;;2.77;;
13743;SDS011;6943;52.368;9.966;2022-11-25T11:07:19;8.57;;;3.53;;
13743;SDS011;6943;52.368;9.966;2022-11-25T11:09:46;8.30;;;4.00;;
13743;SDS011;6943;52.368;9.966;2022-11-25T11:12:18;7.33;;;3.00;;
13743;SDS011;6943;52.368;9.966;2022-11-25T11:14:44;12.27;;;4.20;;
13743;SDS011;6943;52.368;9.966;2022-11-25T11:17:28;12.53;;;3.97;;
13743;SDS011;6943;52.368;9.966;2022-11-25T11:22:31;12.83;;;3.40;;
13743;SDS011;6943;52.368;9.966;2022-11-25T11:25:04;15.90;;;3.83;;
13743;SDS011;6943;52.368;9.966;2022-11-25T11:27:47;6.90;;;3.27;;
13743;SDS011;6943;52.368;9.966;2022-11-25T11:33:01;6.67;;;3.40;;
13743;SDS011;6943;52.368;9.966;2022-11-25T11:35:46;11.80;;;3.87;;
13743;SDS011;6943;52.368;9.966;2022-11-25T11:41:10;9.77;;;4.00;;
13743;SDS011;6943;52.368;9.966;2022-11-25T11:44:03;12.27;;;4.77;;
13743;SDS011;6943;52.368;9.966;2022-11-25T11:46:42;10.33;;;5.57;;
13743;SDS011;6943;52.368;9.966;2022-11-25T11:49:36;8.37;;;4.10;;
13743;SDS011;6943;52.368;9.966;2022-11-25T11:52:35;20.47;;;4.63;;
13743;SDS011;6943;52.368;9.966;2022-11-25T11:55:16;11.80;;;3.53;;
13743;SDS011;6943;52.368;9.966;2022-11-25T11:57:56;9.83;;;3.37;;
13743;SDS011;6943;52.368;9.966;2022-11-25T12:00:59;12.07;;;4.23;;
13743;SDS011;6943;52.368;9.966;2022-11-25T12:03:56;12.53;;;4.50;;
13743;SDS011;6943;52.368;9.966;2022-11-25T12:06:39;10.77;;;4.70;;
13743;SDS011;6943;52.368;9.966;2022-11-25T12:09:11;10.93;;;4.33;;
13743;SDS011;6943;52.368;9.966;2022-11-25T12:11:41;9.33;;;3.93;;
13743;SDS011;6943;52.368;9.966;2022-11-25T12:17:29;7.70;;;4.30;;
13743;SDS011;6943;52.368;9.966;2022-11-25T12:20:02;7.27;;;4.03;;
13743;SDS011;6943;52.368;9.966;2022-11-25T12:25:42;8.33;;;4.27;;
13743;SDS011;6943;52.368;9.966;2022-11-25T12:28:16;9.90;;;4.60;;
13743;SDS011;6943;52.368;9.966;2022-11-25T12:30:55;10.63;;;4.13;;
13743;SDS011;6943;52.368;9.966;2022-11-25T12:39:04;17.07;;;5.83;;
13743;SDS011;6943;52.368;9.966;2022-11-25T12:41:39;11.27;;;6.77;;
13743;SDS011;6943;52.368;9.966;2022-11-25T12:44:17;24.60;;;11.77;;
13743;SDS011;6943;52.368;9.966;2022-11-25T12:46:48;9.63;;;5.73;;
13743;SDS011;6943;52.368;9.966;2022-11-25T12:49:31;12.20;;;5.67;;
13743;SDS011;6943;52.368;9.966;2022-11-25T12:55:16;12.57;;;5.00;;
13743;SDS011;6943;52.368;9.966;2022-11-25T13:00:22;8.70;;;4.93;;
13743;SDS011;6943;52.368;9.966;2022-11-25T13:16:54;12.43;;;5.10;;
13743;SDS011;6943;52.368;9.966;2022-11-25T13:19:21;9.90;;;5.63;;
13743;SDS011;6943;52.368;9.966;2022-11-25T13:21:59;11.03;;;5.93;;
13743;SDS011;6943;52.368;9.966;2022-11-25T13:24:27;9.73;;;4.80;;
13743;SDS011;6943;52.368;9.966;2022-11-25T13:26:57;12.67;;;5.23;;
13743;SDS011;6943;52.368;9.966;2022-11-25T13:31:54;7.40;;;4.50;;
13743;SDS011;6943;52.368;9.966;2022-11-25T13:39:18;10.13;;;5.30;;
13743;SDS011;6943;52.368;9.966;2022-11-25T13:44:50;7.20;;;4.63;;
13743;SDS011;6943;52.368;9.966;2022-11-25T13:50:05;9.90;;;5.63;;
13743;SDS011;6943;52.368;9.966;2022-11-25T13:53:19;13.40;;;5.27;;
13743;SDS011;6943;52.368;9.966;2022-11-25T13:55:40;9.23;;;5.53;;
13743;SDS011;6943;52.368;9.966;2022-11-25T14:06:01;9.30;;;5.20;;
13743;SDS011;6943;52.368;9.966;2022-11-25T14:11:35;8.73;;;4.87;;
13743;SDS011;6943;52.368;9.966;2022-11-25T14:23:06;11.93;;;7.80;;
13743;SDS011;6943;52.368;9.966;2022-11-25T14:25:56;6.53;;;5.17;;
13743;SDS011;6943;52.368;9.966;2022-11-25T14:28:44;11.10;;;6.27;;
13743;SDS011;6943;52.368;9.966;2022-11-25T14:31:20;9.70;;;5.50;;
13743;SDS011;6943;52.368;9.966;2022-11-25T14:33:52;8.60;;;5.83;;
13743;SDS011;6943;52.368;9.966;2022-11-25T14:36:21;9.10;;;5.67;;
13743;SDS011;6943;52.368;9.966;2022-11-25T14:39:15;12.63;;;6.43;;
13743;SDS011;6943;52.368;9.966;2022-11-25T14:41:57;13.67;;;7.20;;
13743;SDS011;6943;52.368;9.966;2022-11-25T14:44:30;11.03;;;6.43;;
13743;SDS011;6943;52.368;9.966;2022-11-25T14:47:02;13.07;;;7.17;;
13743;SDS011;6943;52.368;9.966;2022-11-25T14:49:50;11.07;;;7.27;;
13743;SDS011;6943;52.368;9.966;2022-11-25T14:52:23;13.30;;;7.00;;
13743;SDS011;6943;52.368;9.966;2022-11-25T14:54:52;12.50;;;8.37;;
13743;SDS011;6943;52.368;9.966;2022-11-25T14:57:20;13.37;;;7.90;;
13743;SDS011;6943;52.368;9.966;2022-11-25T14:59:48;12.70;;;7.60;;
13743;SDS011;6943;52.368;9.966;2022-11-25T15:02:22;9.23;;;7.10;;
13743;SDS011;6943;52.368;9.966;2022-11-25T15:04:50;12.33;;;8.70;;
13743;SDS011;6943;52.368;9.966;2022-11-25T15:07:18;18.33;;;9.40;;
13743;SDS011;6943;52.368;9.966;2022-11-25T15:09:46;17.40;;;8.57;;
13743;SDS011;6943;52.368;9.966;2022-11-25T15:12:15;18.10;;;8.73;;
13743;SDS011;6943;52.368;9.966;2022-11-25T15:14:47;15.23;;;8.87;;
13743;SDS011;6943;52.368;9.966;2022-11-25T15:17:31;15.20;;;8.93;;
13743;SDS011;6943;52.368;9.966;2022-11-25T15:20:00;14.87;;;8.17;;
13743;SDS011;6943;52.368;9.966;2022-11-25T15:22:33;13.10;;;8.90;;
13743;SDS011;6943;52.368;9.966;2022-11-25T15:25:05;13.30;;;9.07;;
13743;SDS011;6943;52.368;9.966;2022-11-25T15:27:33;16.00;;;8.70;;
13743;SDS011;6943;52.368;9.966;2022-11-25T15:29:58;15.70;;;9.47;;
13743;SDS011;6943;52.368;9.966;2022-11-25T15:32:25;15.77;;;9.30;;
13743;SDS011;6943;52.368;9.966;2022-11-25T15:34:53;14.43;;;10.20;;
13743;SDS011;6943;52.368;9.966;2022-11-25T15:37:21;15.37;;;9.80;;
13743;SDS011;6943;52.368;9.966;2022-11-25T15:39:48;16.50;;;10.27;;
13743;SDS011;6943;52.368;9.966;2022-11-25T15:42:18;14.60;;;10.03;;
13743;SDS011;6943;52.368;9.966;2022-11-25T15:44:50;18.47;;;10.77;;
13743;SDS011;6943;52.368;9.966;2022-11-25T15:47:30;15.53;;;11.10;;
13743;SDS011;6943;52.368;9.966;2022-11-25T15:49:58;20.00;;;11.73;;
13743;SDS011;6943;52.368;9.966;2022-11-25T15:52:43;16.87;;;11.17;;
13743;SDS011;6943;52.368;9.966;2022-11-25T15:58:16;15.53;;;10.83;;
13743;SDS011;6943;52.368;9.966;2022-11-25T16:03:41;14.67;;;10.20;;
13743;SDS011;6943;52.368;9.966;2022-11-25T16:06:18;18.77;;;11.20;;
13743;SDS011;6943;52.368;9.966;2022-11-25T16:08:53;16.73;;;11.67;;
13743;SDS011;6943;52.368;9.966;2022-11-25T16:11:20;14.43;;;10.60;;
13743;SDS011;6943;52.368;9.966;2022-11-25T16:13:48;12.20;;;10.87;;
13743;SDS011;6943;52.368;9.966;2022-11-25T16:16:18;19.90;;;11.73;;
13743;SDS011;6943;52.368;9.966;2022-11-25T16:26:37;18.53;;;13.60;;
13743;SDS011;6943;52.368;9.966;2022-11-25T16:29:14;20.47;;;14.63;;
13743;SDS011;6943;52.368;9.966;2022-11-25T16:31:41;19.00;;;14.33;;
13743;SDS011;6943;52.368;9.966;2022-11-25T16:34:19;27.10;;;16.17;;
13743;SDS011;6943;52.368;9.966;2022-11-25T16:36:48;22.40;;;16.37;;
13743;SDS011;6943;52.368;9.966;2022-11-25T16:39:13;22.40;;;15.90;;
13743;SDS011;6943;52.368;9.966;2022-11-25T16:41:40;21.33;;;15.30;;
13743;SDS011;6943;52.368;9.966;2022-11-25T16:44:19;19.87;;;15.70;;
13743;SDS011;6943;52.368;9.966;2022-11-25T16:46:46;25.67;;;16.10;;
13743;SDS011;6943;52.368;9.966;2022-11-25T16:49:12;23.87;;;15.83;;
13743;SDS011;6943;52.368;9.966;2022-11-25T16:51:39;19.80;;;15.67;;
13743;SDS011;6943;52.368;9.966;2022-11-25T16:54:05;22.90;;;16.10;;
13743;SDS011;6943;52.368;9.966;2022-11-25T16:56:30;20.33;;;15.20;;
13743;SDS011;6943;52.368;9.966;2022-11-25T16:58:58;22.07;;;14.53;;
13743;SDS011;6943;52.368;9.966;2022-11-25T17:01:25;18.67;;;13.40;;